createdAt,value
2018-07-30T00:01:00.357Z,22.20
2018-07-30T00:03:27.800Z,22.10
2018-07-30T00:05:55.172Z,22.10
2018-07-30T00:08:22.611Z,22.10
2018-07-30T00:10:50.002Z,22.00
2018-07-30T00:13:17.366Z,22.00
2018-07-30T00:15:44.734Z,21.90
2018-07-30T00:18:12.074Z,21.80
2018-07-30T00:20:39.581Z,21.80
2018-07-30T00:25:34.420Z,21.80
2018-07-30T00:28:01.870Z,21.70
2018-07-30T00:30:29.262Z,21.70
2018-07-30T00:32:56.659Z,21.60
2018-07-30T00:35:23.990Z,21.60
2018-07-30T00:37:51.397Z,21.50
2018-07-30T00:40:18.842Z,21.60
2018-07-30T00:42:47.561Z,21.60
2018-07-30T00:45:15.461Z,21.50
2018-07-30T00:47:42.881Z,21.40
2018-07-30T00:50:10.269Z,21.50
2018-07-30T00:52:37.926Z,21.50
2018-07-30T00:55:05.606Z,21.50
2018-07-30T00:57:33.077Z,21.50
2018-07-30T01:00:00.358Z,21.40
2018-07-30T01:02:27.781Z,21.30
2018-07-30T01:04:55.290Z,21.30
2018-07-30T01:07:22.742Z,21.30
2018-07-30T01:09:50.153Z,21.20
2018-07-30T01:12:17.546Z,21.20
2018-07-30T01:14:45.025Z,21.10
2018-07-30T01:17:12.443Z,21.10
2018-07-30T01:19:39.897Z,21.00
2018-07-30T01:22:07.295Z,20.90
2018-07-30T01:24:34.685Z,20.90
2018-07-30T01:27:02.031Z,20.80
2018-07-30T01:29:29.343Z,20.80
2018-07-30T01:31:56.783Z,20.70
2018-07-30T01:34:24.165Z,20.70
2018-07-30T01:36:51.483Z,20.60
2018-07-30T01:39:18.811Z,20.60
2018-07-30T01:41:46.175Z,20.50
2018-07-30T01:44:13.511Z,20.50
2018-07-30T01:46:40.907Z,20.40
2018-07-30T01:49:08.652Z,20.40
2018-07-30T01:51:36.024Z,20.40
2018-07-30T01:54:03.467Z,20.30
2018-07-30T01:56:30.871Z,20.30
2018-07-30T01:58:58.270Z,20.20
2018-07-30T02:01:25.757Z,20.20
2018-07-30T02:03:53.221Z,20.10
2018-07-30T02:06:20.559Z,20.10
2018-07-30T02:08:47.958Z,20.10
2018-07-30T02:11:15.360Z,20.10
2018-07-30T02:13:42.752Z,20.10
2018-07-30T02:16:10.255Z,20.20
2018-07-30T02:18:37.653Z,20.20
2018-07-30T02:21:05.171Z,20.30
2018-07-30T02:23:32.634Z,20.30
2018-07-30T02:26:00.073Z,20.30
2018-07-30T02:28:27.454Z,20.30
2018-07-30T02:30:54.888Z,20.10
2018-07-30T02:33:22.255Z,20.00
2018-07-30T02:35:49.579Z,20.20
2018-07-30T02:38:17.009Z,20.20
2018-07-30T02:40:44.503Z,20.30
2018-07-30T02:43:11.806Z,20.20
2018-07-30T02:45:39.281Z,20.10
2018-07-30T02:48:06.794Z,20.20
2018-07-30T02:50:34.135Z,20.10
2018-07-30T02:53:01.527Z,20.00
2018-07-30T02:57:56.330Z,19.90
2018-07-30T03:02:50.994Z,19.90
2018-07-30T03:05:18.830Z,19.90
2018-07-30T03:07:46.298Z,19.80
2018-07-30T03:10:13.714Z,19.80
2018-07-30T03:12:41.495Z,19.70
2018-07-30T03:15:08.870Z,19.70
2018-07-30T03:17:36.310Z,19.70
2018-07-30T03:20:03.882Z,19.70
2018-07-30T03:22:31.262Z,19.70
2018-07-30T03:24:58.730Z,19.70
2018-07-30T03:27:26.046Z,19.70
2018-07-30T03:29:53.480Z,19.70
2018-07-30T03:32:20.882Z,19.60
2018-07-30T03:34:48.286Z,19.50
2018-07-30T03:37:15.685Z,19.50
2018-07-30T03:39:43.101Z,19.50
2018-07-30T03:42:10.524Z,19.40
2018-07-30T03:44:37.922Z,19.40
2018-07-30T03:47:05.626Z,19.40
2018-07-30T03:49:33.046Z,19.50
2018-07-30T03:52:00.402Z,19.50
2018-07-30T03:54:27.797Z,19.60
2018-07-30T03:56:55.218Z,19.50
2018-07-30T03:59:22.579Z,19.50
2018-07-30T04:01:50.082Z,19.50
2018-07-30T04:04:17.510Z,19.40
2018-07-30T04:06:44.955Z,19.50
2018-07-30T04:09:12.300Z,19.60
2018-07-30T04:11:39.813Z,19.60
2018-07-30T04:14:07.197Z,19.60
2018-07-30T04:16:51.717Z,19.60
2018-07-30T04:19:19.841Z,19.60
2018-07-30T04:21:47.209Z,19.50
2018-07-30T04:24:14.704Z,19.50
2018-07-30T04:26:43.125Z,19.50
2018-07-30T04:29:10.407Z,19.50
2018-07-30T04:31:38.864Z,19.60
2018-07-30T04:34:06.594Z,19.60
2018-07-30T04:36:34.175Z,19.70
2018-07-30T04:39:01.553Z,19.60
2018-07-30T04:41:28.921Z,19.60
2018-07-30T04:43:58.468Z,19.60
2018-07-30T04:46:25.913Z,19.60
2018-07-30T04:48:53.721Z,19.60
2018-07-30T04:51:21.159Z,19.70
2018-07-30T04:53:48.570Z,19.70
2018-07-30T04:56:16.033Z,19.80
2018-07-30T04:58:43.698Z,19.90
2018-07-30T05:01:11.073Z,19.90
2018-07-30T05:03:38.475Z,20.10
2018-07-30T05:06:05.831Z,20.20
2018-07-30T05:08:33.291Z,20.20
2018-07-30T05:11:00.665Z,20.30
2018-07-30T05:13:28.113Z,20.30
2018-07-30T05:15:55.811Z,20.40
2018-07-30T05:18:23.191Z,20.40
2018-07-30T05:20:50.636Z,20.40
2018-07-30T05:23:18.020Z,20.50
2018-07-30T05:25:45.456Z,20.40
2018-07-30T05:28:12.825Z,20.50
2018-07-30T05:30:40.263Z,20.50
2018-07-30T05:33:07.749Z,20.60
2018-07-30T05:35:35.236Z,20.60
2018-07-30T05:38:02.645Z,20.60
2018-07-30T05:40:30.039Z,20.70
2018-07-30T05:42:57.495Z,20.80
2018-07-30T05:45:25.697Z,21.00
2018-07-30T05:47:53.725Z,21.10
2018-07-30T05:50:21.059Z,21.30
2018-07-30T05:52:48.598Z,21.40
2018-07-30T05:55:15.978Z,21.50
2018-07-30T05:57:43.868Z,21.70
2018-07-30T06:00:11.310Z,21.80
2018-07-30T06:02:38.734Z,22.00
2018-07-30T06:05:06.796Z,22.10
2018-07-30T06:07:34.288Z,22.20
2018-07-30T06:10:01.868Z,22.40
2018-07-30T06:12:29.259Z,22.40
2018-07-30T06:14:56.710Z,22.50
2018-07-30T06:17:24.102Z,22.60
2018-07-30T06:19:51.654Z,22.70
2018-07-30T06:22:19.074Z,22.90
2018-07-30T06:24:46.448Z,22.90
2018-07-30T06:27:14.060Z,22.90
2018-07-30T06:29:41.458Z,23.10
2018-07-30T06:32:08.874Z,23.20
2018-07-30T06:34:36.265Z,23.30
2018-07-30T06:37:03.698Z,23.50
2018-07-30T06:39:31.094Z,23.70
2018-07-30T06:41:58.568Z,23.70
2018-07-30T06:44:26.589Z,23.90
2018-07-30T06:46:54.074Z,24.00
2018-07-30T06:49:22.333Z,24.00
2018-07-30T06:51:49.816Z,24.10
2018-07-30T06:54:17.243Z,24.30
2018-07-30T06:56:44.623Z,24.40
2018-07-30T06:59:12.073Z,24.50
2018-07-30T07:01:39.481Z,24.70
2018-07-30T07:04:07.190Z,24.90
2018-07-30T07:06:35.580Z,25.00
2018-07-30T07:09:05.805Z,25.10
2018-07-30T07:11:33.315Z,25.30
2018-07-30T07:16:28.126Z,25.30
2018-07-30T07:18:55.539Z,25.30
2018-07-30T07:21:23.104Z,25.60
2018-07-30T07:23:50.358Z,25.70
2018-07-30T07:26:17.777Z,25.60
2018-07-30T07:28:45.120Z,25.80
2018-07-30T07:31:12.517Z,26.00
2018-07-30T07:33:39.945Z,26.20
2018-07-30T07:36:07.303Z,26.50
2018-07-30T07:38:34.763Z,26.70
2018-07-30T07:41:02.241Z,26.90
2018-07-30T07:43:29.657Z,27.20
2018-07-30T07:45:57.067Z,27.20
2018-07-30T07:48:24.377Z,27.50
2018-07-30T07:50:51.906Z,27.60
2018-07-30T07:53:19.225Z,27.60
2018-07-30T07:55:46.522Z,27.70
2018-07-30T07:58:13.920Z,27.70
2018-07-30T08:00:41.416Z,27.60
2018-07-30T08:03:08.773Z,27.70
2018-07-30T08:08:03.382Z,28.10
2018-07-30T08:10:30.762Z,28.20
2018-07-30T08:12:58.112Z,28.40
2018-07-30T08:15:25.534Z,28.40
2018-07-30T08:17:52.896Z,28.80
2018-07-30T08:20:20.290Z,28.90
2018-07-30T08:22:47.625Z,29.10
2018-07-30T08:25:14.974Z,29.30
2018-07-30T08:27:42.837Z,29.40
2018-07-30T08:30:10.277Z,29.60
2018-07-30T08:35:05.925Z,29.50
2018-07-30T08:37:33.719Z,29.70
2018-07-30T08:40:01.335Z,29.80
2018-07-30T08:42:28.912Z,29.90
2018-07-30T08:44:56.397Z,30.00
2018-07-30T08:47:23.867Z,29.90
2018-07-30T08:49:51.377Z,30.00
2018-07-30T08:52:18.949Z,30.20
2018-07-30T08:54:46.353Z,30.20
2018-07-30T08:57:13.843Z,30.10
2018-07-30T08:59:41.333Z,30.20
2018-07-30T09:02:08.780Z,30.30
2018-07-30T09:04:36.191Z,30.10
2018-07-30T09:07:03.919Z,30.20
2018-07-30T09:09:31.339Z,30.20
2018-07-30T09:14:26.001Z,30.60
2018-07-30T09:16:53.515Z,30.80
2018-07-30T09:19:20.881Z,30.90
2018-07-30T09:21:48.279Z,31.00
2018-07-30T09:24:15.604Z,31.20
2018-07-30T09:26:42.994Z,31.30
2018-07-30T09:29:10.492Z,31.20
2018-07-30T09:31:37.956Z,31.30
2018-07-30T09:34:05.405Z,31.30
2018-07-30T09:36:32.850Z,31.30
2018-07-30T09:39:00.292Z,31.40
2018-07-30T09:41:27.894Z,31.40
2018-07-30T09:43:55.226Z,31.60
2018-07-30T09:46:22.608Z,31.70
2018-07-30T09:48:50.017Z,31.80
2018-07-30T09:51:17.376Z,31.80
2018-07-30T09:53:44.812Z,32.00
2018-07-30T09:56:12.260Z,32.20
2018-07-30T09:58:40.314Z,32.10
2018-07-30T10:01:13.130Z,32.10
2018-07-30T10:03:40.578Z,32.10
2018-07-30T10:06:08.021Z,32.40
2018-07-30T10:08:35.424Z,32.30
2018-07-30T10:11:02.873Z,32.30
2018-07-30T10:13:30.206Z,32.30
2018-07-30T10:15:57.631Z,32.50
2018-07-30T10:20:52.406Z,32.10
2018-07-30T10:23:19.797Z,31.60
2018-07-30T10:25:47.094Z,31.60
2018-07-30T10:28:14.482Z,31.50
2018-07-30T10:30:41.937Z,31.80
2018-07-30T10:33:09.573Z,32.30
2018-07-30T10:35:37.069Z,32.50
2018-07-30T10:38:04.482Z,32.60
2018-07-30T10:40:31.892Z,32.50
2018-07-30T10:42:59.329Z,32.20
2018-07-30T10:47:54.020Z,32.70
2018-07-30T10:50:21.439Z,32.80
2018-07-30T10:52:48.808Z,32.80
2018-07-30T10:55:16.254Z,32.60
2018-07-30T10:57:43.790Z,32.10
2018-07-30T11:00:11.348Z,31.70
2018-07-30T11:02:38.704Z,31.40
2018-07-30T11:05:06.290Z,31.20
2018-07-30T11:07:33.770Z,31.00
2018-07-30T11:10:01.204Z,31.40
2018-07-30T11:12:28.807Z,31.70
2018-07-30T11:14:57.263Z,32.00
2018-07-30T11:17:24.689Z,32.30
2018-07-30T11:19:52.137Z,32.60
2018-07-30T11:22:19.627Z,32.70
2018-07-30T11:24:47.153Z,32.90
2018-07-30T11:27:14.625Z,33.20
2018-07-30T11:29:41.984Z,33.40
2018-07-30T11:32:09.323Z,33.50
2018-07-30T11:34:36.737Z,33.80
2018-07-30T11:37:04.204Z,34.10
2018-07-30T11:39:31.599Z,34.30
2018-07-30T11:41:58.922Z,34.20
2018-07-30T11:44:26.323Z,33.60
2018-07-30T11:46:53.672Z,33.50
2018-07-30T11:49:23.143Z,33.50
2018-07-30T11:51:50.642Z,33.60
2018-07-30T11:54:18.140Z,33.90
2018-07-30T11:56:45.521Z,34.00
2018-07-30T11:59:12.938Z,34.00
2018-07-30T12:01:41.164Z,33.90
2018-07-30T12:04:09.856Z,33.90
2018-07-30T12:06:37.266Z,33.90
2018-07-30T12:09:06.261Z,33.90
2018-07-30T12:11:34.698Z,34.20
2018-07-30T12:14:02.178Z,34.30
2018-07-30T12:16:29.598Z,34.10
2018-07-30T12:18:57.058Z,33.80
2018-07-30T12:21:24.482Z,33.50
2018-07-30T12:23:51.941Z,33.40
2018-07-30T12:26:19.433Z,33.40
2018-07-30T12:28:46.948Z,33.50
2018-07-30T12:31:14.800Z,33.30
2018-07-30T12:33:42.310Z,33.10
2018-07-30T12:36:09.763Z,33.10
2018-07-30T12:38:37.171Z,33.30
2018-07-30T12:41:04.655Z,33.80
2018-07-30T12:43:31.981Z,33.70
2018-07-30T12:45:59.314Z,33.50
2018-07-30T12:48:26.775Z,33.80
2018-07-30T12:50:54.736Z,34.20
2018-07-30T12:53:22.718Z,34.30
2018-07-30T12:55:50.097Z,34.30
2018-07-30T13:00:45.914Z,33.60
2018-07-30T13:03:13.367Z,33.10
2018-07-30T13:05:40.787Z,32.90
2018-07-30T13:08:08.440Z,32.60
2018-07-30T13:10:36.117Z,32.60
2018-07-30T13:13:03.678Z,32.80
2018-07-30T13:15:31.123Z,32.90
2018-07-30T13:17:58.561Z,33.10
2018-07-30T13:20:26.005Z,33.00
2018-07-30T13:22:53.416Z,33.00
2018-07-30T13:25:20.832Z,33.30
2018-07-30T13:27:48.257Z,33.80
2018-07-30T13:30:15.660Z,34.00
2018-07-30T13:32:43.192Z,34.00
2018-07-30T13:35:10.555Z,33.60
2018-07-30T13:37:38.039Z,33.30
2018-07-30T13:40:05.673Z,33.10
2018-07-30T13:42:33.232Z,33.10
2018-07-30T13:45:00.858Z,32.80
2018-07-30T13:47:28.232Z,32.70
2018-07-30T13:49:55.730Z,32.60
2018-07-30T13:52:23.194Z,32.60
2018-07-30T13:54:50.671Z,32.50
2018-07-30T13:57:18.143Z,32.70
2018-07-30T13:59:45.683Z,33.30
2018-07-30T14:02:13.164Z,33.80
2018-07-30T14:04:40.498Z,34.40
2018-07-30T14:07:07.915Z,34.50
2018-07-30T14:09:35.333Z,34.70
2018-07-30T14:12:02.842Z,34.70
2018-07-30T14:14:30.534Z,34.50
2018-07-30T14:16:58.066Z,34.20
2018-07-30T14:19:25.454Z,33.90
2018-07-30T14:21:53.069Z,34.40
2018-07-30T14:24:21.160Z,34.20
2018-07-30T14:26:48.536Z,34.00
2018-07-30T14:29:15.937Z,33.80
2018-07-30T14:31:43.313Z,34.00
2018-07-30T14:34:10.747Z,33.70
2018-07-30T14:36:38.214Z,33.50
2018-07-30T14:39:08.058Z,33.30
2018-07-30T14:41:35.570Z,33.20
2018-07-30T14:44:02.942Z,33.60
2018-07-30T14:46:30.409Z,34.00
2018-07-30T14:48:57.867Z,34.40
2018-07-30T14:51:26.821Z,34.40
2018-07-30T14:53:54.246Z,34.50
2018-07-30T14:56:21.976Z,34.70
2018-07-30T14:58:49.373Z,34.70
2018-07-30T15:01:16.766Z,34.90
2018-07-30T15:03:44.175Z,34.70
2018-07-30T15:06:11.697Z,34.60
2018-07-30T15:08:39.170Z,34.40
2018-07-30T15:11:06.645Z,34.30
2018-07-30T15:13:34.052Z,34.30
2018-07-30T15:16:01.523Z,34.30
2018-07-30T15:18:28.939Z,34.20
2018-07-30T15:20:56.347Z,34.20
2018-07-30T15:23:23.867Z,34.10
2018-07-30T15:25:51.362Z,34.00
2018-07-30T15:28:18.767Z,34.00
2018-07-30T15:30:46.215Z,33.90
2018-07-30T15:33:13.709Z,34.00
2018-07-30T15:35:41.158Z,33.90
2018-07-30T15:38:08.615Z,33.90
2018-07-30T15:40:36.127Z,33.70
2018-07-30T15:43:03.485Z,33.70
2018-07-30T15:45:30.877Z,33.80
2018-07-30T15:47:58.297Z,33.80
2018-07-30T15:50:25.798Z,33.70
2018-07-30T15:52:53.976Z,33.60
2018-07-30T15:55:21.527Z,33.60
2018-07-30T15:57:48.850Z,33.50
2018-07-30T16:00:16.295Z,33.50
2018-07-30T16:02:43.822Z,33.50
2018-07-30T16:05:14.803Z,33.40
2018-07-30T16:07:42.386Z,33.30
2018-07-30T16:10:10.051Z,33.20
2018-07-30T16:12:37.575Z,33.20
2018-07-30T16:15:06.135Z,33.00
2018-07-30T16:17:33.618Z,32.90
2018-07-30T16:20:00.962Z,32.70
2018-07-30T16:24:55.733Z,32.50
2018-07-30T16:27:23.146Z,32.30
2018-07-30T16:29:50.566Z,32.20
2018-07-30T16:32:18.034Z,32.20
2018-07-30T16:34:45.517Z,32.10
2018-07-30T16:37:13.034Z,32.10
2018-07-30T16:39:40.554Z,32.10
2018-07-30T16:42:07.921Z,32.10
2018-07-30T16:44:35.318Z,32.00
2018-07-30T16:47:02.827Z,32.00
2018-07-30T16:49:30.054Z,31.90
2018-07-30T16:51:57.525Z,32.00
2018-07-30T16:54:24.933Z,32.00
2018-07-30T16:56:52.499Z,32.00
2018-07-30T16:59:19.867Z,31.90
2018-07-30T17:01:47.334Z,31.90
2018-07-30T17:04:14.693Z,31.90
2018-07-30T17:06:42.209Z,31.90
2018-07-30T17:09:10.837Z,31.90
2018-07-30T17:11:38.346Z,31.80
2018-07-30T17:14:05.786Z,31.80
2018-07-30T17:16:33.226Z,31.80
2018-07-30T17:19:00.935Z,31.80
2018-07-30T17:21:28.477Z,31.80
2018-07-30T17:23:55.970Z,31.70
2018-07-30T17:26:23.262Z,31.60
2018-07-30T17:28:50.618Z,31.60
2018-07-30T17:31:18.317Z,31.60
2018-07-30T17:33:45.697Z,31.60
2018-07-30T17:38:40.468Z,31.60
2018-07-30T17:41:07.978Z,31.50
2018-07-30T17:43:35.396Z,31.50
2018-07-30T17:46:02.727Z,31.40
2018-07-30T17:48:30.221Z,31.30
2018-07-30T17:50:57.580Z,31.30
2018-07-30T17:53:25.003Z,31.20
2018-07-30T17:55:52.428Z,31.10
2018-07-30T17:58:19.817Z,31.00
2018-07-30T18:00:47.282Z,30.90
2018-07-30T18:03:14.681Z,30.70
2018-07-30T18:05:42.050Z,30.60
2018-07-30T18:08:09.569Z,30.50
2018-07-30T18:10:37.128Z,30.30
2018-07-30T18:13:04.527Z,30.20
2018-07-30T18:15:32.224Z,30.10
2018-07-30T18:18:00.650Z,30.00
2018-07-30T18:20:28.082Z,29.90
2018-07-30T18:25:22.886Z,29.80
2018-07-30T18:27:50.176Z,29.60
2018-07-30T18:30:17.574Z,29.60
2018-07-30T18:32:45.018Z,29.40
2018-07-30T18:35:13.101Z,29.30
2018-07-30T18:37:40.551Z,29.20
2018-07-30T18:40:07.984Z,29.10
2018-07-30T18:42:35.315Z,29.00
2018-07-30T18:45:02.902Z,29.00
2018-07-30T18:47:30.340Z,28.90
2018-07-30T18:52:25.259Z,28.70
2018-07-30T18:54:52.746Z,28.60
2018-07-30T18:57:20.126Z,28.60
2018-07-30T18:59:47.506Z,28.50
2018-07-30T19:02:15.048Z,28.40
2018-07-30T19:04:42.504Z,28.30
2018-07-30T19:07:09.893Z,28.20
2018-07-30T19:09:37.347Z,28.10
2018-07-30T19:12:04.885Z,28.00
2018-07-30T19:14:35.035Z,27.90
2018-07-30T19:17:02.555Z,27.90
2018-07-30T19:19:29.989Z,27.80
2018-07-30T19:21:57.493Z,27.60
2018-07-30T19:24:25.081Z,27.60
2018-07-30T19:26:52.563Z,27.50
2018-07-30T19:29:20.016Z,27.40
2018-07-30T19:31:47.615Z,27.40
2018-07-30T19:34:15.040Z,27.40
2018-07-30T19:36:42.464Z,27.30
2018-07-30T19:39:11.882Z,27.30
2018-07-30T19:41:39.361Z,27.20
2018-07-30T19:44:07.304Z,27.00
2018-07-30T19:46:34.758Z,27.00
2018-07-30T19:49:02.204Z,26.80
2018-07-30T19:51:29.807Z,26.80
2018-07-30T19:53:57.178Z,26.70
2018-07-30T19:56:24.590Z,26.70
2018-07-30T19:58:52.197Z,26.60
2018-07-30T20:01:19.755Z,26.60
2018-07-30T20:03:47.245Z,26.60
2018-07-30T20:06:14.722Z,26.50
2018-07-30T20:08:43.764Z,26.50
2018-07-30T20:11:11.336Z,26.40
2018-07-30T20:13:38.830Z,26.30
2018-07-30T20:16:06.521Z,26.30
2018-07-30T20:18:33.986Z,26.20
2018-07-30T20:21:01.383Z,26.20
2018-07-30T20:23:28.848Z,26.20
2018-07-30T20:25:56.378Z,26.10
2018-07-30T20:28:23.838Z,26.10
2018-07-30T20:30:51.230Z,26.00
2018-07-30T20:33:19.172Z,26.00
2018-07-30T20:35:46.598Z,26.00
2018-07-30T20:38:14.050Z,25.90
2018-07-30T20:40:41.926Z,25.90
2018-07-30T20:43:09.542Z,25.90
2018-07-30T20:45:37.427Z,25.90
2018-07-30T20:48:05.546Z,25.90
2018-07-30T20:50:32.986Z,25.80
2018-07-30T20:53:00.674Z,25.80
2018-07-30T20:55:28.130Z,25.70
2018-07-30T20:57:56.154Z,25.60
2018-07-30T21:00:23.684Z,25.60
2018-07-30T21:02:51.251Z,25.60
2018-07-30T21:05:18.715Z,25.50
2018-07-30T21:07:46.088Z,25.50
2018-07-30T21:10:14.914Z,25.40
2018-07-30T21:12:43.061Z,25.40
2018-07-30T21:15:10.442Z,25.40
2018-07-30T21:17:37.745Z,25.30
2018-07-30T21:20:05.342Z,25.10
2018-07-30T21:22:32.699Z,25.10
2018-07-30T21:25:00.117Z,25.10
2018-07-30T21:27:27.521Z,25.00
2018-07-30T21:29:54.935Z,25.00
2018-07-30T21:32:22.359Z,25.00
2018-07-30T21:34:49.775Z,24.70
2018-07-30T21:37:17.142Z,24.60
2018-07-30T21:39:44.471Z,24.60
2018-07-30T21:42:11.949Z,24.60
2018-07-30T21:44:39.462Z,24.40
2018-07-30T21:47:06.819Z,24.40
2018-07-30T21:49:34.230Z,24.30
2018-07-30T21:52:01.638Z,24.20
2018-07-30T21:54:28.973Z,24.10
2018-07-30T21:56:56.358Z,24.00
2018-07-30T21:59:24.093Z,24.10
2018-07-30T22:01:51.547Z,24.10
2018-07-30T22:04:18.986Z,24.10
2018-07-30T22:06:47.020Z,24.00
2018-07-30T22:09:14.406Z,24.20
2018-07-30T22:11:41.856Z,24.10
2018-07-30T22:14:10.083Z,24.00
2018-07-30T22:16:37.438Z,24.00
2018-07-30T22:19:05.130Z,23.90
2018-07-30T22:21:32.506Z,23.80
2018-07-30T22:23:59.806Z,23.70
2018-07-30T22:26:27.114Z,23.70
2018-07-30T22:28:54.506Z,23.70
2018-07-30T22:31:21.874Z,23.60
2018-07-30T22:33:49.362Z,23.60
2018-07-30T22:36:16.726Z,23.50
2018-07-30T22:38:44.062Z,23.40
2018-07-30T22:41:11.456Z,23.30
2018-07-30T22:43:38.859Z,23.30
2018-07-30T22:46:06.391Z,23.20
2018-07-30T22:48:33.820Z,23.20
2018-07-30T22:51:01.282Z,23.20
2018-07-30T22:53:28.729Z,23.10
2018-07-30T22:55:56.117Z,23.10
2018-07-30T22:58:23.504Z,23.20
2018-07-30T23:00:50.860Z,23.10
2018-07-30T23:03:18.331Z,23.20
2018-07-30T23:05:45.803Z,23.10
2018-07-30T23:08:13.242Z,23.20
2018-07-30T23:10:40.685Z,23.20
2018-07-30T23:13:08.126Z,23.10
2018-07-30T23:15:35.516Z,23.10
2018-07-30T23:18:03.043Z,23.00
2018-07-30T23:20:30.406Z,23.00
2018-07-30T23:22:57.879Z,22.90
2018-07-30T23:25:25.258Z,22.80
2018-07-30T23:27:52.898Z,23.00
2018-07-30T23:30:20.221Z,22.90
2018-07-30T23:32:47.599Z,22.90
2018-07-30T23:35:15.101Z,22.90
2018-07-30T23:37:42.437Z,22.80
2018-07-30T23:40:09.822Z,22.70
2018-07-30T23:42:37.346Z,22.80
2018-07-30T23:45:04.855Z,22.70
2018-07-30T23:47:32.270Z,22.70
2018-07-30T23:49:59.643Z,22.70
2018-07-30T23:52:27.032Z,22.50
2018-07-30T23:54:54.499Z,22.50
2018-07-30T23:57:21.880Z,22.50
2018-07-30T23:59:49.392Z,22.50
